Startpagina
METAR-TAF:

METAR-TAF

Vliegvelden :

Elsenborn

Bütgenbach, België

breedte: 50-28N, lengte: 006-11E, hoogte: 564 m

Actueel weer

Dit bericht is 18 minuten geleden gemaakt, om 01:55 UTC
Wind 3 kt uit het zuidzuidwesten
Temperatuur -3°C
Vochtigheid 100%
Druk 1023 hPa
Zicht: 0600 m
mist

METAR: EBLB 240155Z AUTO 21003KT 0600 FG OVC002/// M03/M03 Q1023 RED

Tijdstip: 03:13 (02:13 UTC)


TAF: ontbreekt

Waarnemingen en weersverwachtingen van meer dan 4000 vliegvelden (METAR en TAF).

De beschikbare stations zijn de gele en rode punten op de kaart.

Ga met uw muis naar het station om de naam te zien.

Klik dan om waarnemingen en weersverwachtingen te zien.

kaart wijzigen: klik op de groene knoppen met een zwart kruis om in te zoomen, op de groene knop met een streepje om uit te zoomen of op de groene pijlen voor aangrenzende kaarten.


METAR-TAF: